CFG34N LOWW-EDDF
Flight info
| Callsign | CFG34N |
|---|---|
| Flight time | N/A |
| Altitude | 34000 |
| Route | BUWUT1D BUWUT DCT DITIS DCT RAPET T170 GAPLA/N0399F240 T178 KERAX KERAX5A |
| Aircraft | A321/M-V/N |
Departure
| Time | 2026-04-25 10:46 |
|---|---|
| Airport | Vienna International Airport (LOWW) |
Arrival
| Time | N/A |
|---|---|
| Airport | Frankfurt Main Airport (EDDF) |
| Time | Latitude | Longitude | Altitude | Speed | Heading |
|---|---|---|---|---|---|
| 2026-04-25 10:43 | 48.11282 | 16.57065 | 614 ft | 31 kts | 117° |
| 2026-04-25 10:43 | 48.11207 | 16.57253 | 617 ft | 4 kts | 186° |
| 2026-04-25 10:44 | 48.11166 | 16.57226 | 622 ft | 9 kts | 205° |
| 2026-04-25 10:44 | 48.11096 | 16.57173 | 612 ft | 13 kts | 210° |
| 2026-04-25 10:44 | 48.11044 | 16.57092 | 613 ft | 3 kts | 277° |
| 2026-04-25 10:44 | 48.11064 | 16.57062 | 618 ft | 7 kts | 312° |
| 2026-04-25 10:45 | 48.11088 | 16.56997 | 615 ft | 10 kts | 296° |
| 2026-04-25 10:45 | 48.11183 | 16.56701 | 621 ft | 65 kts | 296° |
| 2026-04-25 10:45 | 48.11472 | 16.55812 | 617 ft | 122 kts | 296° |
| 2026-04-25 10:45 | 48.11907 | 16.54464 | 686 ft | 157 kts | 295° |
| 2026-04-25 10:46 | 48.12170 | 16.52888 | 1228 ft | 165 kts | 265° |
| 2026-04-25 10:46 | 48.11852 | 16.51215 | 1827 ft | 169 kts | 254° |
| 2026-04-25 10:46 | 48.11604 | 16.49428 | 2094 ft | 185 kts | 264° |
| 2026-04-25 10:46 | 48.11456 | 16.47381 | 2197 ft | 211 kts | 273° |
| 2026-04-25 10:47 | 48.11740 | 16.45077 | 2377 ft | 243 kts | 282° |
| 2026-04-25 10:47 | 48.12069 | 16.42521 | 3098 ft | 252 kts | 281° |
| 2026-04-25 10:47 | 48.12358 | 16.39954 | 4185 ft | 249 kts | 280° |
| 2026-04-25 10:47 | 48.12629 | 16.37409 | 5121 ft | 247 kts | 280° |
| 2026-04-25 10:48 | 48.12891 | 16.34865 | 6055 ft | 248 kts | 281° |
| 2026-04-25 10:48 | 48.13172 | 16.32140 | 6830 ft | 257 kts | 281° |
| 2026-04-25 10:48 | 48.13434 | 16.29598 | 7580 ft | 262 kts | 280° |
| 2026-04-25 10:48 | 48.13717 | 16.26882 | 8349 ft | 267 kts | 281° |
| 2026-04-25 10:49 | 48.14054 | 16.24136 | 9145 ft | 270 kts | 289° |
| 2026-04-25 10:49 | 48.14833 | 16.21619 | 10065 ft | 266 kts | 305° |
| 2026-04-25 10:49 | 48.16111 | 16.19528 | 10770 ft | 272 kts | 322° |
| 2026-04-25 10:49 | 48.17741 | 16.18091 | 11241 ft | 287 kts | 332° |
| 2026-04-25 10:50 | 48.19602 | 16.16719 | 11457 ft | 310 kts | 333° |
| 2026-04-25 10:50 | 48.21615 | 16.15245 | 11621 ft | 333 kts | 333° |
| 2026-04-25 10:50 | 48.23736 | 16.13692 | 12114 ft | 343 kts | 333° |
| 2026-04-25 10:50 | 48.25895 | 16.12105 | 12793 ft | 348 kts | 332° |
| 2026-04-25 10:51 | 48.28079 | 16.10492 | 13502 ft | 352 kts | 332° |
| 2026-04-25 10:51 | 48.30288 | 16.08855 | 14173 ft | 356 kts | 332° |
| 2026-04-25 10:51 | 48.32522 | 16.07197 | 14801 ft | 360 kts | 332° |
| 2026-04-25 10:51 | 48.35040 | 16.05321 | 15509 ft | 363 kts | 332° |
| 2026-04-25 10:52 | 48.37049 | 16.03823 | 16070 ft | 366 kts | 331° |
| 2026-04-25 10:52 | 48.39339 | 16.02117 | 16705 ft | 369 kts | 331° |
| 2026-04-25 10:52 | 48.41646 | 16.00399 | 17358 ft | 371 kts | 331° |
| 2026-04-25 10:52 | 48.43968 | 15.98668 | 17991 ft | 374 kts | 330° |
| 2026-04-25 10:53 | 48.46306 | 15.96923 | 18561 ft | 376 kts | 330° |
| 2026-04-25 10:53 | 48.48661 | 15.95165 | 19058 ft | 379 kts | 330° |
| 2026-04-25 10:53 | 48.51032 | 15.93390 | 19561 ft | 382 kts | 330° |
| 2026-04-25 10:53 | 48.52783 | 15.92075 | 19932 ft | 384 kts | 330° |
| 2026-04-25 10:54 | 48.55121 | 15.90133 | 20430 ft | 384 kts | 323° |
| 2026-04-25 10:54 | 48.56543 | 15.88513 | 20759 ft | 383 kts | 316° |
| 2026-04-25 10:54 | 48.58933 | 15.84574 | 21405 ft | 383 kts | 303° |